createdAt,value
2019-06-20T00:00:54.292Z,854.49
2019-06-20T00:01:54.257Z,854.44
2019-06-20T00:02:54.233Z,854.44
2019-06-20T00:03:54.208Z,854.43
2019-06-20T00:04:54.201Z,854.44
2019-06-20T00:05:54.179Z,854.40
2019-06-20T00:06:54.231Z,854.41
2019-06-20T00:07:54.169Z,854.44
2019-06-20T00:08:54.150Z,854.43
2019-06-20T00:09:54.148Z,854.30
2019-06-20T00:10:54.139Z,854.38
2019-06-20T00:11:54.119Z,854.41
2019-06-20T00:13:00.465Z,854.39
2019-06-20T00:13:55.103Z,854.41
2019-06-20T00:14:54.092Z,854.37
2019-06-20T00:15:54.083Z,854.37
2019-06-20T00:16:54.069Z,854.36
2019-06-20T00:17:54.055Z,854.37
2019-06-20T00:18:54.078Z,854.39
2019-06-20T00:19:54.045Z,854.43
2019-06-20T00:20:54.047Z,854.40
2019-06-20T00:21:54.018Z,854.39
2019-06-20T00:22:54.057Z,854.35
2019-06-20T00:23:53.997Z,854.34
2019-06-20T00:24:54.017Z,854.37
2019-06-20T00:25:53.969Z,854.34
2019-06-20T00:26:53.958Z,854.35
2019-06-20T00:27:53.948Z,854.33
2019-06-20T00:28:53.937Z,854.31
2019-06-20T00:29:53.938Z,854.38
2019-06-20T00:30:53.948Z,854.33
2019-06-20T00:31:53.928Z,854.36
2019-06-20T00:32:53.895Z,854.32
2019-06-20T00:33:53.905Z,854.35
2019-06-20T00:34:53.865Z,854.36
2019-06-20T00:35:53.866Z,854.38
2019-06-20T00:36:53.905Z,854.35
2019-06-20T00:37:53.837Z,854.36
2019-06-20T00:38:53.826Z,854.34
2019-06-20T00:39:53.814Z,854.30
2019-06-20T00:40:53.823Z,854.31
2019-06-20T00:41:53.834Z,854.30
2019-06-20T00:42:53.816Z,854.24
2019-06-20T00:43:53.766Z,854.23
2019-06-20T00:44:53.776Z,854.24
2019-06-20T00:45:53.754Z,854.28
2019-06-20T00:46:53.739Z,854.26
2019-06-20T00:47:53.861Z,854.22
2019-06-20T00:48:53.751Z,854.21
2019-06-20T00:49:53.747Z,854.25
2019-06-20T00:50:53.684Z,854.26
2019-06-20T00:51:53.687Z,854.24
2019-06-20T00:52:53.711Z,854.27
2019-06-20T00:53:53.653Z,854.32
2019-06-20T00:54:53.645Z,854.31
2019-06-20T00:55:53.633Z,854.31
2019-06-20T00:56:53.652Z,854.30
2019-06-20T00:57:53.617Z,854.31
2019-06-20T00:58:53.644Z,854.33
2019-06-20T00:59:53.592Z,854.28
2019-06-20T01:00:53.622Z,854.31
2019-06-20T01:01:53.572Z,854.28
2019-06-20T01:02:53.592Z,854.30
2019-06-20T01:03:53.562Z,854.28
2019-06-20T01:04:53.570Z,854.24
2019-06-20T01:05:53.523Z,854.22
2019-06-20T01:06:53.510Z,854.26
2019-06-20T01:07:53.553Z,854.26
2019-06-20T01:08:53.509Z,854.24
2019-06-20T01:09:53.483Z,854.22
2019-06-20T01:10:53.470Z,854.24
2019-06-20T01:11:53.462Z,854.23
2019-06-20T01:12:53.451Z,854.24
2019-06-20T01:13:53.469Z,854.26
2019-06-20T01:14:53.573Z,854.28
2019-06-20T01:15:53.423Z,854.22
2019-06-20T01:16:53.418Z,854.28
2019-06-20T01:17:53.431Z,854.28
2019-06-20T01:18:53.576Z,854.31
2019-06-20T01:19:53.400Z,854.31
2019-06-20T01:20:53.362Z,854.31
2019-06-20T01:21:53.350Z,854.30
2019-06-20T01:22:53.391Z,854.30
2019-06-20T01:23:53.367Z,854.34
2019-06-20T01:24:53.311Z,854.34
2019-06-20T01:25:53.408Z,854.31
2019-06-20T01:26:53.297Z,854.39
2019-06-20T01:27:53.279Z,854.38
2019-06-20T01:28:53.299Z,854.35
2019-06-20T01:29:53.314Z,854.37
2019-06-20T01:30:53.241Z,854.35
2019-06-20T01:31:53.267Z,854.35
2019-06-20T01:32:53.228Z,854.33
2019-06-20T01:33:53.210Z,854.37
2019-06-20T01:34:53.209Z,854.32
2019-06-20T01:35:53.227Z,854.29
2019-06-20T01:36:53.187Z,854.30
2019-06-20T01:37:53.178Z,854.30
2019-06-20T01:38:53.170Z,854.30
2019-06-20T01:39:53.158Z,854.22
2019-06-20T01:40:53.183Z,854.24
2019-06-20T01:41:53.134Z,854.23
2019-06-20T01:42:53.150Z,854.18
2019-06-20T01:43:53.108Z,854.20
2019-06-20T01:44:53.088Z,854.19
2019-06-20T01:45:53.085Z,854.18
2019-06-20T01:46:53.069Z,854.20
2019-06-20T01:47:53.063Z,854.24
2019-06-20T01:48:53.085Z,854.16
2019-06-20T01:49:53.078Z,854.13
2019-06-20T01:50:53.091Z,854.12
2019-06-20T01:51:53.023Z,854.09
2019-06-20T01:52:53.007Z,854.10
2019-06-20T01:53:53.084Z,854.07
2019-06-20T01:54:52.983Z,854.09
2019-06-20T01:55:53.014Z,854.14
2019-06-20T01:56:52.963Z,854.15
2019-06-20T01:57:52.978Z,854.12
2019-06-20T01:58:52.937Z,854.17
2019-06-20T01:59:52.925Z,854.18
2019-06-20T02:00:52.914Z,854.13
2019-06-20T02:01:52.944Z,854.10
2019-06-20T02:02:52.899Z,854.14
2019-06-20T02:03:53.025Z,854.08
2019-06-20T02:04:52.871Z,854.06
2019-06-20T02:05:52.863Z,854.04
2019-06-20T02:06:52.865Z,854.05
2019-06-20T02:07:52.873Z,854.01
2019-06-20T02:08:52.863Z,854.04
2019-06-20T02:09:52.894Z,853.99
2019-06-20T02:10:52.812Z,853.98
2019-06-20T02:11:52.793Z,853.97
2019-06-20T02:12:52.808Z,854.00
2019-06-20T02:14:06.485Z,854.01
2019-06-20T02:14:53.794Z,854.02
2019-06-20T02:15:52.749Z,854.05
2019-06-20T02:16:52.742Z,854.00
2019-06-20T02:17:52.735Z,854.04
2019-06-20T02:18:52.722Z,853.98
2019-06-20T02:19:52.728Z,854.02
2019-06-20T02:20:52.732Z,854.04
2019-06-20T02:21:52.684Z,854.04
2019-06-20T02:22:52.670Z,854.03
2019-06-20T02:23:52.662Z,854.02
2019-06-20T02:24:52.660Z,854.01
2019-06-20T02:25:52.646Z,854.00
2019-06-20T02:26:52.671Z,854.03
2019-06-20T02:27:52.626Z,854.00
2019-06-20T02:28:52.608Z,854.02
2019-06-20T02:29:52.590Z,854.00
2019-06-20T02:30:52.579Z,853.95
2019-06-20T02:31:52.715Z,854.07
2019-06-20T02:32:52.594Z,854.04
2019-06-20T02:33:52.553Z,854.04
2019-06-20T02:34:52.572Z,854.08
2019-06-20T02:35:52.538Z,854.08
2019-06-20T02:36:52.559Z,854.13
2019-06-20T02:37:52.519Z,854.08
2019-06-20T02:38:52.506Z,854.08
2019-06-20T02:39:52.487Z,854.06
2019-06-20T02:40:52.469Z,854.00
2019-06-20T02:41:52.470Z,854.00
2019-06-20T02:42:52.489Z,854.04
2019-06-20T02:43:52.438Z,854.06
2019-06-20T02:44:52.459Z,854.05
2019-06-20T02:45:52.419Z,854.03
2019-06-20T02:46:52.411Z,854.04
2019-06-20T02:47:52.397Z,854.01
2019-06-20T02:48:52.388Z,854.04
2019-06-20T02:49:52.406Z,854.06
2019-06-20T02:50:52.367Z,854.06
2019-06-20T02:51:52.358Z,854.09
2019-06-20T02:52:52.351Z,854.04
2019-06-20T02:53:52.366Z,854.05
2019-06-20T02:54:52.357Z,854.08
2019-06-20T02:55:52.323Z,854.08
2019-06-20T02:56:52.297Z,854.09
2019-06-20T02:57:52.296Z,854.06
2019-06-20T02:58:52.276Z,854.05
2019-06-20T02:59:52.295Z,854.05
2019-06-20T03:00:52.287Z,854.05
2019-06-20T03:01:52.246Z,854.04
2019-06-20T03:02:52.295Z,854.07
2019-06-20T03:03:52.224Z,854.10
2019-06-20T03:04:52.272Z,854.09
2019-06-20T03:05:52.197Z,853.99
2019-06-20T03:06:52.193Z,854.01
2019-06-20T03:07:52.174Z,854.03
2019-06-20T03:08:52.167Z,854.01
2019-06-20T03:09:52.160Z,854.04
2019-06-20T03:10:52.199Z,854.01
2019-06-20T03:11:52.205Z,853.99
2019-06-20T03:12:52.136Z,854.02
2019-06-20T03:13:52.111Z,854.01
2019-06-20T03:14:52.118Z,854.00
2019-06-20T03:15:52.091Z,853.99
2019-06-20T03:16:52.112Z,854.04
2019-06-20T03:17:52.063Z,854.06
2019-06-20T03:18:52.063Z,854.03
2019-06-20T03:19:52.083Z,854.00
2019-06-20T03:20:52.039Z,853.99
2019-06-20T03:21:52.083Z,853.97
2019-06-20T03:22:52.010Z,853.91
2019-06-20T03:23:52.043Z,853.86
2019-06-20T03:24:52.006Z,853.94
2019-06-20T03:25:52.029Z,853.89
2019-06-20T03:26:51.962Z,853.94
2019-06-20T03:27:52.050Z,853.92
2019-06-20T03:28:51.941Z,853.93
2019-06-20T03:29:51.932Z,853.93
2019-06-20T03:30:52.045Z,853.97
2019-06-20T03:31:51.963Z,853.97
2019-06-20T03:32:51.941Z,853.97
2019-06-20T03:33:51.893Z,853.99
2019-06-20T03:34:51.881Z,854.04
2019-06-20T03:35:51.861Z,854.01
2019-06-20T03:36:51.859Z,854.01
2019-06-20T03:37:51.891Z,854.05
2019-06-20T03:38:51.829Z,854.03
2019-06-20T03:39:51.823Z,854.03
2019-06-20T03:40:51.850Z,854.06
2019-06-20T03:41:51.800Z,854.03
2019-06-20T03:42:51.786Z,854.07
2019-06-20T03:43:51.780Z,854.06
2019-06-20T03:45:01.718Z,854.07
2019-06-20T03:45:52.802Z,854.04
2019-06-20T03:46:51.746Z,854.04
2019-06-20T03:47:51.738Z,854.04
2019-06-20T03:48:51.725Z,854.02
2019-06-20T03:49:51.711Z,854.05
2019-06-20T03:50:51.697Z,854.03
2019-06-20T03:51:51.858Z,854.06
2019-06-20T03:52:51.678Z,854.05
2019-06-20T03:53:51.667Z,853.99
2019-06-20T03:54:51.659Z,853.98
2019-06-20T03:55:51.658Z,854.02
2019-06-20T03:56:51.678Z,853.98
2019-06-20T03:57:51.619Z,853.98
2019-06-20T03:58:51.704Z,853.94
2019-06-20T03:59:51.597Z,853.96
2019-06-20T04:00:51.586Z,853.93
2019-06-20T04:01:51.689Z,853.95
2019-06-20T04:02:51.593Z,853.94
2019-06-20T04:03:51.556Z,853.93
2019-06-20T04:04:51.576Z,853.96
2019-06-20T04:05:51.535Z,853.93
2019-06-20T04:06:51.530Z,853.90
2019-06-20T04:07:51.526Z,853.96
2019-06-20T04:08:51.522Z,853.92
2019-06-20T04:09:51.498Z,853.92
2019-06-20T04:10:51.555Z,853.90
2019-06-20T04:11:51.465Z,853.90
2019-06-20T04:12:51.453Z,853.87
2019-06-20T04:13:51.444Z,853.90
2019-06-20T04:14:51.434Z,853.93
2019-06-20T04:15:51.421Z,853.87
2019-06-20T04:16:51.445Z,853.90
2019-06-20T04:17:51.394Z,853.94
2019-06-20T04:18:51.387Z,853.94
2019-06-20T04:19:51.374Z,853.92
2019-06-20T04:20:51.411Z,853.98
2019-06-20T04:21:51.366Z,853.92
2019-06-20T04:22:51.360Z,853.94
2019-06-20T04:23:51.334Z,853.95
2019-06-20T04:24:51.332Z,853.92
2019-06-20T04:25:51.313Z,853.92
2019-06-20T04:26:51.344Z,853.90
2019-06-20T04:27:51.319Z,853.92
2019-06-20T04:28:51.279Z,853.92
2019-06-20T04:29:51.273Z,853.91
2019-06-20T04:30:51.271Z,853.93
2019-06-20T04:31:51.300Z,853.95
2019-06-20T04:32:51.242Z,853.95
2019-06-20T04:33:51.225Z,853.87
2019-06-20T04:34:51.221Z,853.86
2019-06-20T04:35:51.201Z,853.92
2019-06-20T04:36:51.189Z,853.90
2019-06-20T04:37:51.220Z,853.92
2019-06-20T04:38:51.207Z,853.88
2019-06-20T04:39:51.174Z,853.91
2019-06-20T04:40:51.190Z,853.89
2019-06-20T04:41:51.142Z,853.89
2019-06-20T04:42:51.121Z,853.87
2019-06-20T04:43:51.110Z,853.86
2019-06-20T04:44:51.100Z,853.89
2019-06-20T04:45:51.141Z,853.92
2019-06-20T04:46:51.099Z,853.89
2019-06-20T04:47:51.068Z,853.89
2019-06-20T04:48:51.120Z,853.88
2019-06-20T04:49:51.041Z,853.89
2019-06-20T04:50:51.089Z,853.87
2019-06-20T04:51:51.031Z,853.87
2019-06-20T04:52:51.123Z,853.78
2019-06-20T04:53:50.999Z,853.85
2019-06-20T04:54:50.989Z,853.83
2019-06-20T04:55:50.991Z,853.86
2019-06-20T04:56:51.000Z,853.87
2019-06-20T04:57:50.959Z,853.88
2019-06-20T04:58:50.961Z,853.87
2019-06-20T04:59:50.937Z,853.91
2019-06-20T05:00:50.972Z,853.88
2019-06-20T05:01:50.921Z,853.85
2019-06-20T05:02:50.909Z,853.79
2019-06-20T05:03:50.912Z,853.80
2019-06-20T05:04:50.878Z,853.89
2019-06-20T05:05:50.877Z,853.90
2019-06-20T05:06:50.898Z,853.89
2019-06-20T05:07:50.873Z,853.92
2019-06-20T05:08:50.845Z,853.90
2019-06-20T05:09:50.826Z,853.94
2019-06-20T05:10:50.858Z,853.96
2019-06-20T05:11:50.806Z,853.94
2019-06-20T05:12:50.826Z,853.96
2019-06-20T05:13:50.789Z,853.94
2019-06-20T05:14:51.556Z,853.88
2019-06-20T05:15:52.987Z,853.95
2019-06-20T05:16:50.775Z,853.96
2019-06-20T05:17:50.779Z,853.93
2019-06-20T05:18:50.790Z,853.94
2019-06-20T05:19:50.721Z,853.91
2019-06-20T05:20:50.876Z,853.84
2019-06-20T05:21:50.696Z,853.84
2019-06-20T05:22:50.683Z,853.80
2019-06-20T05:23:50.707Z,853.82
2019-06-20T05:24:50.715Z,853.85
2019-06-20T05:25:50.815Z,853.80
2019-06-20T05:26:50.645Z,853.87
2019-06-20T05:27:50.644Z,853.92
2019-06-20T05:28:50.622Z,853.94
2019-06-20T05:29:50.604Z,853.93
2019-06-20T05:30:50.643Z,853.93
2019-06-20T05:31:50.584Z,853.93
2019-06-20T05:32:50.595Z,853.93
2019-06-20T05:33:50.567Z,853.88
2019-06-20T05:34:50.571Z,853.90
2019-06-20T05:35:50.603Z,853.87
2019-06-20T05:36:50.534Z,853.87
2019-06-20T05:37:50.526Z,853.80
2019-06-20T05:38:50.513Z,853.82
2019-06-20T05:39:50.519Z,853.82
2019-06-20T05:40:50.483Z,853.83
2019-06-20T05:41:50.515Z,853.88
2019-06-20T05:42:50.543Z,853.87
2019-06-20T05:43:50.457Z,853.90
2019-06-20T05:44:50.443Z,853.86
2019-06-20T05:45:50.473Z,853.90
2019-06-20T05:46:50.424Z,853.85
2019-06-20T05:47:50.410Z,853.87
2019-06-20T05:48:50.458Z,853.88
2019-06-20T05:49:50.424Z,853.88
2019-06-20T05:50:50.373Z,853.95
2019-06-20T05:51:50.367Z,853.92
2019-06-20T05:52:50.350Z,853.94
2019-06-20T05:53:50.353Z,853.94
2019-06-20T05:54:50.392Z,853.92
2019-06-20T05:55:50.476Z,853.92
2019-06-20T05:56:50.310Z,853.84
2019-06-20T05:57:50.351Z,853.81
2019-06-20T05:58:50.624Z,853.82
2019-06-20T05:59:50.285Z,853.81
2019-06-20T06:00:50.262Z,853.82
2019-06-20T06:01:50.258Z,853.75
2019-06-20T06:02:50.480Z,853.72
2019-06-20T06:03:51.259Z,853.72
2019-06-20T06:04:50.221Z,853.71
2019-06-20T06:05:50.212Z,853.74
2019-06-20T06:06:50.190Z,853.79
2019-06-20T06:07:50.187Z,853.79
2019-06-20T06:08:50.186Z,853.81
2019-06-20T06:09:50.221Z,853.83
2019-06-20T06:10:50.202Z,853.83
2019-06-20T06:11:50.152Z,853.85
2019-06-20T06:12:50.129Z,853.80
2019-06-20T06:13:50.237Z,853.80
2019-06-20T06:14:50.099Z,853.85
2019-06-20T06:15:50.637Z,853.83
2019-06-20T06:16:50.220Z,853.84
2019-06-20T06:17:50.077Z,853.85
2019-06-20T06:18:50.067Z,853.83
2019-06-20T06:19:50.111Z,853.83
2019-06-20T06:20:50.096Z,853.84
2019-06-20T06:21:50.064Z,853.80
2019-06-20T06:22:50.057Z,853.82
2019-06-20T06:23:50.008Z,853.77
2019-06-20T06:24:49.999Z,853.76
2019-06-20T06:25:49.987Z,853.75
2019-06-20T06:26:50.007Z,853.74
2019-06-20T06:27:49.982Z,853.77
2019-06-20T06:28:49.949Z,853.72
2019-06-20T06:29:49.941Z,853.72
2019-06-20T06:30:49.937Z,853.75
2019-06-20T06:31:49.956Z,853.72
2019-06-20T06:32:49.908Z,853.76
2019-06-20T06:33:49.895Z,853.74
2019-06-20T06:34:49.887Z,853.74
2019-06-20T06:35:49.874Z,853.73
2019-06-20T06:36:49.948Z,853.74
2019-06-20T06:37:49.857Z,853.71
2019-06-20T06:38:49.842Z,853.68
2019-06-20T06:39:49.841Z,853.67
2019-06-20T06:40:49.816Z,853.72
2019-06-20T06:41:49.953Z,853.71
2019-06-20T06:42:49.865Z,853.67
2019-06-20T06:43:49.821Z,853.75
2019-06-20T06:44:49.954Z,853.76
2019-06-20T06:45:49.767Z,853.79
2019-06-20T06:46:54.387Z,853.79
2019-06-20T06:47:50.782Z,853.84
2019-06-20T06:48:49.735Z,853.77
2019-06-20T06:49:49.747Z,853.82
2019-06-20T06:50:49.801Z,853.74
2019-06-20T06:51:49.717Z,853.75
2019-06-20T06:52:49.733Z,853.74
2019-06-20T06:53:49.692Z,853.70
2019-06-20T06:54:49.665Z,853.74
2019-06-20T06:55:49.648Z,853.70
2019-06-20T06:56:49.652Z,853.71
2019-06-20T06:57:49.634Z,853.75
2019-06-20T06:58:49.664Z,853.72
2019-06-20T06:59:49.632Z,853.71
2019-06-20T07:00:49.593Z,853.64
2019-06-20T07:01:49.584Z,853.63
2019-06-20T07:02:49.583Z,853.60
2019-06-20T07:03:49.562Z,853.64
2019-06-20T07:04:49.656Z,853.61
2019-06-20T07:05:49.650Z,853.58
2019-06-20T07:06:49.535Z,853.60
2019-06-20T07:07:49.513Z,853.59
2019-06-20T07:08:49.512Z,853.57
2019-06-20T07:09:49.506Z,853.59
2019-06-20T07:10:49.542Z,853.59
2019-06-20T07:11:49.488Z,853.56
2019-06-20T07:12:49.464Z,853.56
2019-06-20T07:13:49.475Z,853.55
2019-06-20T07:14:49.452Z,853.58
2019-06-20T07:15:49.441Z,853.60
2019-06-20T07:16:59.785Z,853.60
2019-06-20T07:17:50.443Z,853.58
2019-06-20T07:18:49.402Z,853.62
2019-06-20T07:19:49.397Z,853.63
2019-06-20T07:20:49.389Z,853.57
2019-06-20T07:21:49.373Z,853.60
2019-06-20T07:22:49.387Z,853.61
2019-06-20T07:23:49.383Z,853.63
2019-06-20T07:24:49.331Z,853.62
2019-06-20T07:25:49.335Z,853.67
2019-06-20T07:26:49.324Z,853.70
2019-06-20T07:27:49.302Z,853.68
2019-06-20T07:28:51.492Z,853.69
2019-06-20T07:29:49.435Z,853.67
2019-06-20T07:30:49.271Z,853.70
2019-06-20T07:31:49.283Z,853.68
2019-06-20T07:32:49.248Z,853.72
2019-06-20T07:33:49.280Z,853.77
2019-06-20T07:34:49.231Z,853.72
2019-06-20T07:35:49.233Z,853.79
2019-06-20T07:36:49.219Z,853.75
2019-06-20T07:37:49.198Z,853.75
2019-06-20T07:38:49.181Z,853.74
2019-06-20T07:39:49.221Z,853.74
2019-06-20T07:40:49.160Z,853.71
2019-06-20T07:41:49.150Z,853.74
2019-06-20T07:42:49.198Z,853.71
2019-06-20T07:43:49.128Z,853.76
2019-06-20T07:44:49.111Z,853.74
2019-06-20T07:46:02.177Z,853.69
2019-06-20T07:46:50.087Z,853.66
2019-06-20T07:47:49.079Z,853.69
2019-06-20T07:48:49.068Z,853.64
2019-06-20T07:49:49.063Z,853.65
2019-06-20T07:50:49.052Z,853.62
2019-06-20T07:51:49.092Z,853.65
2019-06-20T07:53:01.374Z,853.59
2019-06-20T07:53:50.015Z,853.57
2019-06-20T07:54:48.999Z,853.53
2019-06-20T07:55:48.990Z,853.55
2019-06-20T07:56:48.989Z,853.58
2019-06-20T07:57:49.016Z,853.47
2019-06-20T07:58:48.959Z,853.53
2019-06-20T07:59:48.968Z,853.52
2019-06-20T08:00:48.938Z,853.49
2019-06-20T08:01:48.929Z,853.50
2019-06-20T08:02:48.912Z,853.43
2019-06-20T08:03:48.940Z,853.50
2019-06-20T08:04:48.888Z,853.47
2019-06-20T08:05:48.882Z,853.49
2019-06-20T08:06:48.884Z,853.45
2019-06-20T08:07:48.898Z,853.47
2019-06-20T08:08:48.858Z,853.48
2019-06-20T08:09:49.833Z,853.44
2019-06-20T08:10:48.826Z,853.48
2019-06-20T08:11:48.817Z,853.48
2019-06-20T08:12:48.873Z,853.44
2019-06-20T08:13:48.813Z,853.48
2019-06-20T08:14:48.784Z,853.49
2019-06-20T08:15:48.839Z,853.52
2019-06-20T08:16:48.757Z,853.54
2019-06-20T08:17:48.798Z,853.57
2019-06-20T08:18:48.766Z,853.60
2019-06-20T08:19:48.739Z,853.55
2019-06-20T08:20:48.715Z,853.58
2019-06-20T08:21:48.707Z,853.63
2019-06-20T08:22:48.738Z,853.68
2019-06-20T08:23:48.677Z,853.72
2019-06-20T08:24:48.671Z,853.70
2019-06-20T08:25:48.652Z,853.73
2019-06-20T08:26:48.663Z,853.68
2019-06-20T08:27:48.659Z,853.68
2019-06-20T08:28:48.714Z,853.67
2019-06-20T08:29:48.616Z,853.69
2019-06-20T08:30:48.607Z,853.64
2019-06-20T08:31:48.638Z,853.70
2019-06-20T08:32:57.413Z,853.66
2019-06-20T08:33:48.575Z,853.64
2019-06-20T08:34:48.928Z,853.60
2019-06-20T08:35:48.605Z,853.63
2019-06-20T08:36:48.537Z,853.65
2019-06-20T08:37:48.651Z,853.64
2019-06-20T08:38:48.509Z,853.63
2019-06-20T08:39:48.498Z,853.64
2019-06-20T08:40:48.548Z,853.64
2019-06-20T08:41:48.478Z,853.66
2019-06-20T08:42:48.470Z,853.69
2019-06-20T08:43:48.460Z,853.66
2019-06-20T08:44:48.448Z,853.69
2019-06-20T08:45:48.485Z,853.68
2019-06-20T08:46:48.468Z,853.64
2019-06-20T08:47:48.418Z,853.70
2019-06-20T08:48:48.417Z,853.66
2019-06-20T08:49:48.387Z,853.70
2019-06-20T08:50:48.430Z,853.68
2019-06-20T08:51:48.413Z,853.67
2019-06-20T08:52:48.360Z,853.67
2019-06-20T08:53:48.377Z,853.65
2019-06-20T08:54:48.337Z,853.68
2019-06-20T08:55:48.363Z,853.68
2019-06-20T08:56:48.364Z,853.73
2019-06-20T08:57:48.298Z,853.69
2019-06-20T08:58:48.301Z,853.68
2019-06-20T08:59:48.324Z,853.75
2019-06-20T09:00:48.267Z,853.80
2019-06-20T09:01:48.256Z,853.79
2019-06-20T09:02:48.605Z,853.87
2019-06-20T09:03:48.235Z,853.86
2019-06-20T09:04:48.226Z,853.91
2019-06-20T09:05:48.255Z,853.92
2019-06-20T09:06:50.136Z,853.90
2019-06-20T09:07:48.196Z,853.93
2019-06-20T09:08:48.243Z,853.99
2019-06-20T09:09:48.173Z,853.98
2019-06-20T09:10:48.157Z,853.98
2019-06-20T09:11:48.203Z,853.99
2019-06-20T09:12:49.000Z,854.01
2019-06-20T09:13:55.489Z,854.10
2019-06-20T09:14:48.127Z,854.12
2019-06-20T09:15:48.147Z,854.16
2019-06-20T09:16:48.125Z,854.24
2019-06-20T09:17:48.087Z,854.28
2019-06-20T09:18:48.082Z,854.28
2019-06-20T09:19:48.069Z,854.31
2019-06-20T09:20:48.047Z,854.42
2019-06-20T09:21:48.087Z,854.44
2019-06-20T09:22:48.027Z,854.42
2019-06-20T09:23:48.027Z,854.41
2019-06-20T09:24:48.011Z,854.53
2019-06-20T09:25:47.987Z,854.45
2019-06-20T09:26:47.987Z,854.52
2019-06-20T09:27:48.014Z,854.54
2019-06-20T09:28:59.887Z,854.54
2019-06-20T09:29:47.946Z,854.60
2019-06-20T09:30:48.872Z,854.58
2019-06-20T09:31:48.045Z,854.64
2019-06-20T09:32:47.915Z,854.70
2019-06-20T09:33:48.790Z,854.71
2019-06-20T09:34:47.906Z,854.76
2019-06-20T09:35:47.927Z,854.77
2019-06-20T09:36:47.903Z,854.79
2019-06-20T09:37:47.873Z,854.75
2019-06-20T09:38:48.516Z,854.74
2019-06-20T09:39:47.863Z,854.66
2019-06-20T09:40:47.833Z,854.74
2019-06-20T09:41:47.875Z,854.74
2019-06-20T09:42:54.890Z,854.72
2019-06-20T09:43:47.802Z,854.71
2019-06-20T09:44:47.830Z,854.73
2019-06-20T09:45:47.779Z,854.70
2019-06-20T09:46:47.770Z,854.66
2019-06-20T09:47:47.750Z,854.71
2019-06-20T09:48:47.741Z,854.74
2019-06-20T09:49:50.500Z,854.78
2019-06-20T09:50:49.385Z,854.81
2019-06-20T09:51:49.146Z,854.84
2019-06-20T09:52:49.765Z,854.88
2019-06-20T09:53:48.576Z,854.88
2019-06-20T09:54:49.847Z,854.89
2019-06-20T09:55:48.861Z,854.81
2019-06-20T09:56:50.299Z,854.81
2019-06-20T09:57:49.218Z,854.81
2019-06-20T09:58:48.314Z,854.85
2019-06-20T09:59:59.121Z,854.81
2019-06-20T10:00:49.276Z,854.85
2019-06-20T10:01:48.215Z,854.91
2019-06-20T10:02:48.933Z,854.87
2019-06-20T10:03:48.900Z,854.90
2019-06-20T10:04:49.195Z,854.97
2019-06-20T10:05:48.927Z,854.97
2019-06-20T10:06:48.676Z,855.01
2019-06-20T10:07:48.722Z,855.04
2019-06-20T10:08:48.289Z,855.01
2019-06-20T10:09:48.222Z,855.07
2019-06-20T10:10:49.335Z,855.03
2019-06-20T10:11:47.979Z,855.04
2019-06-20T10:12:47.988Z,855.09
2019-06-20T10:13:48.187Z,855.06
2019-06-20T10:14:48.094Z,855.10
2019-06-20T10:15:47.948Z,855.13
2019-06-20T10:16:50.430Z,855.11
2019-06-20T10:17:48.519Z,855.12
2019-06-20T10:18:48.479Z,855.16
2019-06-20T10:19:48.389Z,855.10
2019-06-20T10:20:48.792Z,855.10
2019-06-20T10:21:47.860Z,855.10
2019-06-20T10:22:48.475Z,855.16
2019-06-20T10:23:47.726Z,855.19
2019-06-20T10:24:47.471Z,855.18
2019-06-20T10:25:47.808Z,855.22
2019-06-20T10:26:47.955Z,855.19
2019-06-20T10:27:48.312Z,855.20
2019-06-20T10:28:47.651Z,855.29
2019-06-20T10:29:47.848Z,855.33
2019-06-20T10:30:47.323Z,855.36
2019-06-20T10:31:48.743Z,855.40
2019-06-20T10:32:48.580Z,855.43
2019-06-20T10:33:48.397Z,855.47
2019-06-20T10:34:48.291Z,855.52
2019-06-20T10:35:48.361Z,855.56
2019-06-20T10:36:48.148Z,855.58
2019-06-20T10:37:48.352Z,855.57
2019-06-20T10:38:48.028Z,855.56
2019-06-20T10:39:47.767Z,855.62
2019-06-20T10:40:47.968Z,855.60
2019-06-20T10:41:48.471Z,855.62
2019-06-20T10:42:48.118Z,855.65
2019-06-20T10:43:47.583Z,855.67
2019-06-20T10:44:47.670Z,855.64
2019-06-20T10:45:47.400Z,855.62
2019-06-20T10:46:47.303Z,855.63
2019-06-20T10:47:47.590Z,855.63
2019-06-20T10:48:47.972Z,855.62
2019-06-20T10:49:47.801Z,855.62
2019-06-20T10:50:47.733Z,855.63
2019-06-20T10:51:47.596Z,855.61
2019-06-20T10:52:48.016Z,855.57
2019-06-20T10:53:47.186Z,855.59
2019-06-20T10:54:47.101Z,855.57
2019-06-20T10:55:47.033Z,855.55
2019-06-20T10:56:47.235Z,855.54
2019-06-20T10:57:47.045Z,855.48
2019-06-20T10:58:46.969Z,855.49
2019-06-20T10:59:46.988Z,855.46
2019-06-20T11:00:48.280Z,855.41
2019-06-20T11:01:48.269Z,855.39
2019-06-20T11:02:47.080Z,855.41
2019-06-20T11:03:47.801Z,855.45
2019-06-20T11:04:47.751Z,855.48
2019-06-20T11:05:48.114Z,855.57
2019-06-20T11:06:47.601Z,855.57
2019-06-20T11:07:47.616Z,855.61
2019-06-20T11:08:47.255Z,855.64
2019-06-20T11:09:47.143Z,855.54
2019-06-20T11:10:47.216Z,855.53
2019-06-20T11:11:47.082Z,855.50
2019-06-20T11:12:52.979Z,855.51
2019-06-20T11:13:48.584Z,855.45
2019-06-20T11:14:46.784Z,855.45
2019-06-20T11:15:46.777Z,855.44
2019-06-20T11:16:47.171Z,855.44
2019-06-20T11:17:47.128Z,855.42
2019-06-20T11:18:46.742Z,855.36
2019-06-20T11:19:48.047Z,855.40
2019-06-20T11:20:46.731Z,855.38
2019-06-20T11:21:47.725Z,855.38
2019-06-20T11:22:47.782Z,855.38
2019-06-20T11:23:47.441Z,855.34
2019-06-20T11:24:47.446Z,855.36
2019-06-20T11:25:46.736Z,855.35
2019-06-20T11:26:47.862Z,855.31
2019-06-20T11:27:47.293Z,855.30
2019-06-20T11:28:46.631Z,855.22
2019-06-20T11:29:46.634Z,855.22
2019-06-20T11:30:58.159Z,855.23
2019-06-20T11:31:48.264Z,855.18
2019-06-20T11:32:48.603Z,855.16
2019-06-20T11:33:46.579Z,855.10
2019-06-20T11:34:47.540Z,855.10
2019-06-20T11:35:47.892Z,855.08
2019-06-20T11:36:46.815Z,855.03
2019-06-20T11:37:47.237Z,854.98
2019-06-20T11:38:46.909Z,854.92
2019-06-20T11:39:47.456Z,854.97
2019-06-20T11:40:46.534Z,854.92
2019-06-20T11:41:46.503Z,854.91
2019-06-20T11:42:46.923Z,854.94
2019-06-20T11:43:46.882Z,854.97
2019-06-20T11:44:47.483Z,854.89
2019-06-20T11:45:47.216Z,854.90
2019-06-20T11:46:47.137Z,854.83
2019-06-20T11:47:47.393Z,854.81
2019-06-20T11:48:47.100Z,854.85
2019-06-20T11:49:46.994Z,854.81
2019-06-20T11:50:46.625Z,854.82
2019-06-20T11:51:46.401Z,854.81
2019-06-20T11:52:46.374Z,854.72
2019-06-20T11:53:46.409Z,854.70
2019-06-20T11:54:46.372Z,854.74
2019-06-20T11:55:46.345Z,854.70
2019-06-20T11:56:46.323Z,854.72
2019-06-20T11:57:46.311Z,854.69
2019-06-20T11:58:46.301Z,854.78
2019-06-20T11:59:46.341Z,854.71
2019-06-20T12:01:02.454Z,854.72
2019-06-20T12:01:47.360Z,854.65
2019-06-20T12:02:46.326Z,854.62
2019-06-20T12:03:46.711Z,854.65
2019-06-20T12:04:47.105Z,854.65
2019-06-20T12:05:47.284Z,854.60
2019-06-20T12:06:47.169Z,854.60
2019-06-20T12:07:47.875Z,854.60
2019-06-20T12:08:46.808Z,854.61
2019-06-20T12:09:46.567Z,854.52
2019-06-20T12:10:47.322Z,854.61
2019-06-20T12:11:46.798Z,854.62
2019-06-20T12:12:46.918Z,854.56
2019-06-20T12:13:46.501Z,854.54
2019-06-20T12:14:46.784Z,854.54
2019-06-20T12:15:46.675Z,854.52
2019-06-20T12:16:46.439Z,854.48
2019-06-20T12:17:47.152Z,854.48
2019-06-20T12:18:47.235Z,854.44
2019-06-20T12:19:46.710Z,854.44
2019-06-20T12:20:46.816Z,854.41
2019-06-20T12:21:46.920Z,854.40
2019-06-20T12:22:46.647Z,854.36
2019-06-20T12:23:46.850Z,854.40
2019-06-20T12:24:46.698Z,854.38
2019-06-20T12:25:46.575Z,854.37
2019-06-20T12:26:46.820Z,854.32
2019-06-20T12:27:47.513Z,854.39
2019-06-20T12:28:46.650Z,854.34